Terminal Aerodrome Forecast
Issued by NWS Albany, NY

Home | Current Version | Previous Version | Text Only | Print | Product List | Glossary On
Versions: 1 2 3 4 5 6 7 8 9 10 11
000
FTUS41 KALY 272000 AAB
TAFPOU
TAF AMD
KPOU 272022Z 2720/2818 25006KT P6SM OVC050
     FM280000 VRB03KT P6SM SCT040 BKN100
     FM280800 VRB03KT P6SM VCSH OVC040
     FM281000 VRB03KT 5SM -SHRA BR BKN025 OVC040=

USA.gov is the U.S. government's official web portal to all federal, state and local government web resources and services.